createdAt,value
2019-03-19T00:00:21.077Z,73.90
2019-03-19T00:02:49.640Z,73.90
2019-03-19T00:05:18.189Z,74.40
2019-03-19T00:07:46.759Z,74.30
2019-03-19T00:10:15.355Z,74.30
2019-03-19T00:12:43.903Z,74.40
2019-03-19T00:15:12.999Z,74.30
2019-03-19T00:17:41.585Z,74.20
2019-03-19T00:20:14.960Z,74.30
2019-03-19T00:22:43.797Z,74.50
2019-03-19T00:25:12.513Z,74.50
2019-03-19T00:27:41.088Z,74.60
2019-03-19T00:30:14.535Z,75.40
2019-03-19T00:32:43.114Z,74.70
2019-03-19T00:35:11.827Z,75.10
2019-03-19T00:37:40.404Z,75.30
2019-03-19T00:40:12.281Z,75.60
2019-03-19T00:42:40.994Z,75.60
2019-03-19T00:45:12.362Z,76.10
2019-03-19T00:47:40.915Z,76.40
2019-03-19T00:50:11.097Z,76.30
2019-03-19T00:52:39.603Z,76.60
2019-03-19T00:55:08.800Z,77.10
2019-03-19T00:57:37.442Z,77.40
2019-03-19T01:00:11.593Z,77.40
2019-03-19T01:02:41.459Z,77.40
2019-03-19T01:05:10.150Z,77.40
2019-03-19T01:07:38.947Z,77.50
2019-03-19T01:10:10.843Z,77.80
2019-03-19T01:12:39.427Z,78.10
2019-03-19T01:15:12.989Z,78.50
2019-03-19T01:17:41.577Z,78.90
2019-03-19T01:20:15.999Z,78.80
2019-03-19T01:22:44.723Z,79.10
2019-03-19T01:25:13.502Z,79.30
2019-03-19T01:27:42.076Z,79.40
2019-03-19T01:30:13.349Z,79.70
2019-03-19T01:32:41.968Z,79.90
2019-03-19T01:35:10.575Z,79.70
2019-03-19T01:37:39.231Z,79.90
2019-03-19T01:40:09.925Z,80.10
2019-03-19T01:42:38.473Z,80.00
2019-03-19T01:45:09.126Z,80.50
2019-03-19T01:47:37.683Z,81.10
2019-03-19T01:50:11.849Z,81.40
2019-03-19T01:52:40.423Z,81.30
2019-03-19T01:55:11.447Z,81.50
2019-03-19T01:57:40.008Z,81.40
2019-03-19T02:00:16.710Z,81.60
2019-03-19T02:02:45.277Z,81.50
2019-03-19T02:05:14.063Z,81.80
2019-03-19T02:08:02.009Z,81.80
2019-03-19T02:10:30.557Z,81.80
2019-03-19T02:12:59.104Z,82.30
2019-03-19T02:15:27.762Z,82.50
2019-03-19T02:17:56.414Z,82.90
2019-03-19T02:23:46.842Z,83.00
2019-03-19T02:26:16.693Z,83.10
2019-03-19T02:28:45.605Z,82.90
2019-03-19T02:31:14.190Z,82.70
2019-03-19T02:34:37.696Z,82.70
2019-03-19T02:37:06.327Z,84.00
2019-03-19T02:39:34.893Z,82.90
2019-03-19T02:42:03.458Z,82.50
2019-03-19T02:44:32.065Z,82.70
2019-03-19T02:47:00.744Z,83.20
2019-03-19T02:49:29.291Z,83.20
2019-03-19T02:51:57.944Z,83.10
2019-03-19T02:54:26.627Z,83.20
2019-03-19T02:56:55.164Z,83.60
2019-03-19T02:59:23.746Z,83.10
2019-03-19T03:01:52.291Z,82.70
2019-03-19T03:04:20.833Z,82.70
2019-03-19T03:06:49.455Z,82.80
2019-03-19T03:09:18.000Z,82.50
2019-03-19T03:11:46.558Z,82.80
2019-03-19T03:14:15.194Z,82.90
2019-03-19T03:16:43.756Z,82.90
2019-03-19T03:19:48.626Z,82.90
2019-03-19T03:22:17.264Z,83.20
2019-03-19T03:24:45.827Z,83.30
2019-03-19T03:27:14.372Z,83.50
2019-03-19T03:29:42.948Z,83.70
2019-03-19T03:32:11.499Z,84.30
2019-03-19T03:34:40.142Z,84.50
2019-03-19T03:37:08.751Z,84.40
2019-03-19T03:39:37.359Z,84.40
2019-03-19T03:42:05.968Z,84.30
2019-03-19T03:44:34.631Z,84.50
2019-03-19T03:47:03.257Z,85.10
2019-03-19T03:49:31.900Z,85.00
2019-03-19T03:52:00.445Z,85.10
2019-03-19T03:54:29.060Z,85.40
2019-03-19T03:57:02.529Z,86.30
2019-03-19T03:59:27.883Z,86.90
2019-03-19T04:01:56.542Z,87.20
2019-03-19T04:04:25.161Z,87.40
2019-03-19T04:06:53.721Z,87.20
2019-03-19T04:09:22.272Z,87.70
2019-03-19T04:11:50.904Z,87.40
2019-03-19T04:14:19.438Z,87.10
2019-03-19T04:16:47.917Z,87.10
2019-03-19T04:19:16.493Z,87.40
2019-03-19T04:21:45.088Z,87.70
2019-03-19T04:24:13.650Z,87.60
2019-03-19T04:26:42.278Z,87.80
2019-03-19T04:29:10.962Z,87.80
2019-03-19T04:31:39.509Z,87.80
2019-03-19T04:34:08.063Z,88.00
2019-03-19T04:36:36.637Z,87.70
2019-03-19T04:39:06.976Z,88.10
2019-03-19T04:41:35.508Z,88.20
2019-03-19T04:44:04.127Z,88.60
2019-03-19T04:46:32.712Z,89.20
2019-03-19T04:49:01.255Z,89.70
2019-03-19T04:51:29.818Z,89.40
2019-03-19T04:53:59.549Z,89.00
2019-03-19T04:56:29.650Z,88.90
2019-03-19T04:58:58.462Z,89.10
2019-03-19T05:01:28.268Z,89.10
2019-03-19T05:03:56.908Z,88.40
2019-03-19T05:06:25.562Z,88.80
2019-03-19T05:08:54.052Z,88.60
2019-03-19T05:11:22.623Z,89.70
2019-03-19T05:13:51.622Z,89.60
2019-03-19T05:16:20.155Z,89.70
2019-03-19T05:18:48.749Z,89.60
2019-03-19T05:21:17.386Z,89.60
2019-03-19T05:23:45.943Z,89.60
2019-03-19T05:26:14.570Z,89.60
2019-03-19T05:28:43.109Z,89.70
2019-03-19T05:31:11.684Z,89.60
2019-03-19T05:33:55.403Z,89.50
2019-03-19T05:36:24.038Z,89.10
2019-03-19T05:38:58.232Z,88.90
2019-03-19T05:41:26.793Z,88.60
2019-03-19T05:43:55.460Z,89.00
2019-03-19T05:46:24.046Z,88.80
2019-03-19T05:48:52.586Z,88.50
2019-03-19T05:51:21.143Z,88.50
2019-03-19T05:53:49.714Z,88.60
2019-03-19T05:56:18.314Z,88.90
2019-03-19T05:58:46.944Z,88.90
2019-03-19T06:01:15.518Z,89.40
2019-03-19T06:03:44.068Z,89.50
2019-03-19T06:06:12.640Z,89.70
2019-03-19T06:08:41.234Z,89.10
2019-03-19T06:11:09.867Z,89.30
2019-03-19T06:13:38.421Z,88.90
2019-03-19T06:16:06.990Z,89.00
2019-03-19T06:18:35.689Z,89.00
2019-03-19T06:21:04.376Z,88.60
2019-03-19T06:23:32.927Z,88.40
2019-03-19T06:26:01.675Z,88.90
2019-03-19T06:28:32.768Z,88.70
2019-03-19T06:31:01.333Z,87.90
2019-03-19T06:33:29.932Z,88.40
2019-03-19T06:39:38.746Z,89.60
2019-03-19T06:42:07.369Z,89.30
2019-03-19T06:44:35.969Z,88.70
2019-03-19T06:47:05.225Z,88.20
2019-03-19T06:49:33.789Z,87.70
2019-03-19T06:52:02.374Z,87.30
2019-03-19T06:54:31.041Z,88.30
2019-03-19T06:56:59.585Z,88.70
2019-03-19T06:59:28.176Z,88.50
2019-03-19T07:01:56.721Z,89.30
2019-03-19T07:04:25.681Z,88.70
2019-03-19T07:06:54.267Z,89.50
2019-03-19T07:09:22.819Z,89.60
2019-03-19T07:11:51.447Z,88.70
2019-03-19T07:14:20.261Z,89.00
2019-03-19T07:16:48.920Z,88.30
2019-03-19T07:19:17.470Z,88.10
2019-03-19T07:21:46.026Z,88.50
2019-03-19T07:24:14.607Z,89.00
2019-03-19T07:26:43.239Z,88.60
2019-03-19T07:29:11.796Z,88.00
2019-03-19T07:31:40.455Z,87.00
2019-03-19T07:34:08.999Z,88.20
2019-03-19T07:36:37.571Z,89.20
2019-03-19T07:39:07.671Z,87.60
2019-03-19T07:41:36.240Z,87.90
2019-03-19T07:44:04.872Z,87.00
2019-03-19T07:49:05.327Z,88.20
2019-03-19T07:51:34.032Z,88.30
2019-03-19T07:54:02.690Z,87.70
2019-03-19T07:56:31.265Z,87.40
2019-03-19T07:59:00.039Z,87.60
2019-03-19T08:01:28.639Z,87.30
2019-03-19T08:03:57.187Z,87.70
2019-03-19T08:06:25.781Z,87.60
2019-03-19T08:08:54.457Z,87.50
2019-03-19T08:11:22.998Z,86.50
2019-03-19T08:13:51.560Z,86.50
2019-03-19T08:16:27.365Z,85.50
2019-03-19T08:18:50.643Z,84.90
2019-03-19T08:21:19.203Z,84.50
2019-03-19T08:23:47.785Z,84.40
2019-03-19T08:26:16.347Z,84.10
2019-03-19T08:28:54.912Z,83.40
2019-03-19T08:31:15.306Z,83.20
2019-03-19T08:33:43.861Z,83.30
2019-03-19T08:36:12.446Z,83.70
2019-03-19T08:38:41.019Z,84.80
2019-03-19T08:41:09.569Z,84.70
2019-03-19T08:43:38.200Z,84.40
2019-03-19T08:46:07.090Z,83.80
2019-03-19T08:48:37.378Z,83.60
2019-03-19T08:51:06.215Z,83.70
2019-03-19T08:53:36.165Z,84.40
2019-03-19T08:56:05.014Z,84.20
2019-03-19T08:58:33.623Z,83.10
2019-03-19T09:01:02.181Z,83.00
2019-03-19T09:03:30.813Z,82.20
2019-03-19T09:05:59.528Z,81.80
2019-03-19T09:08:28.105Z,80.50
2019-03-19T09:10:57.011Z,81.80
2019-03-19T09:13:25.588Z,81.60
2019-03-19T09:15:54.146Z,81.40
2019-03-19T09:18:24.607Z,81.30
2019-03-19T09:20:54.121Z,81.10
2019-03-19T09:23:24.846Z,81.00
2019-03-19T09:25:53.375Z,81.30
2019-03-19T09:28:21.991Z,81.30
2019-03-19T09:30:51.840Z,81.60
2019-03-19T09:33:20.342Z,81.20
2019-03-19T09:35:48.916Z,80.30
2019-03-19T09:38:17.480Z,81.30
2019-03-19T09:40:47.994Z,81.30
2019-03-19T09:43:16.696Z,81.30
2019-03-19T09:45:46.750Z,80.50
2019-03-19T09:48:17.395Z,80.00
2019-03-19T09:50:45.928Z,79.90
2019-03-19T09:53:15.110Z,80.00
2019-03-19T09:55:44.271Z,81.30
2019-03-19T09:58:12.836Z,80.50
2019-03-19T10:00:41.405Z,82.10
2019-03-19T10:03:10.043Z,82.10
2019-03-19T10:05:38.827Z,80.00
2019-03-19T10:08:07.444Z,79.00
2019-03-19T10:10:36.075Z,78.30
2019-03-19T10:13:04.967Z,78.90
2019-03-19T10:15:33.578Z,78.90
2019-03-19T10:18:02.155Z,77.80
2019-03-19T10:20:30.690Z,77.40
2019-03-19T10:22:59.248Z,76.70
2019-03-19T10:25:27.911Z,77.30
2019-03-19T10:27:56.514Z,77.00
2019-03-19T10:30:25.337Z,77.20
2019-03-19T10:32:54.689Z,77.50
2019-03-19T10:35:23.301Z,79.40
2019-03-19T10:37:51.910Z,79.10
2019-03-19T10:40:21.204Z,78.50
2019-03-19T10:42:49.959Z,78.40
2019-03-19T10:45:22.854Z,79.10
2019-03-19T10:47:52.214Z,78.60
2019-03-19T10:50:21.606Z,78.60
2019-03-19T10:52:50.234Z,78.00
2019-03-19T10:55:18.940Z,78.00
2019-03-19T10:57:47.669Z,78.00
2019-03-19T11:00:20.751Z,77.50
2019-03-19T11:02:49.377Z,75.80
2019-03-19T11:05:18.762Z,74.70
2019-03-19T11:07:47.282Z,74.80
2019-03-19T11:10:16.688Z,75.00
2019-03-19T11:12:45.322Z,71.50
2019-03-19T11:15:22.902Z,71.90
2019-03-19T11:17:51.583Z,74.30
2019-03-19T11:20:20.659Z,73.30
2019-03-19T11:22:49.458Z,72.50
2019-03-19T11:25:20.252Z,72.50
2019-03-19T11:27:48.868Z,72.70
2019-03-19T11:30:19.287Z,71.60
2019-03-19T11:32:47.854Z,69.70
2019-03-19T11:35:16.583Z,69.30
2019-03-19T11:37:45.218Z,69.10
2019-03-19T11:40:15.208Z,68.00
2019-03-19T11:42:43.941Z,67.30
2019-03-19T11:45:17.686Z,69.50
2019-03-19T11:47:46.395Z,70.60
2019-03-19T11:50:28.158Z,70.60
2019-03-19T11:52:56.464Z,71.70
2019-03-19T11:55:25.207Z,72.90
2019-03-19T11:57:53.909Z,73.00
2019-03-19T12:00:43.189Z,72.80
2019-03-19T12:03:16.104Z,72.60
2019-03-19T12:05:44.888Z,72.30
2019-03-19T12:08:13.466Z,72.20
2019-03-19T12:10:42.027Z,71.90
2019-03-19T12:13:10.596Z,71.50
2019-03-19T12:15:39.317Z,72.00
2019-03-19T12:18:07.930Z,72.60
2019-03-19T12:20:36.547Z,73.30
2019-03-19T12:23:05.600Z,73.40
2019-03-19T12:25:34.136Z,73.90
2019-03-19T12:28:02.689Z,73.50
2019-03-19T12:30:31.418Z,73.60
2019-03-19T12:32:59.966Z,74.40
2019-03-19T12:35:30.639Z,74.40
2019-03-19T12:37:58.926Z,74.70
2019-03-19T12:40:36.195Z,75.30
2019-03-19T12:42:57.766Z,75.80
2019-03-19T12:45:27.228Z,75.90
2019-03-19T12:47:55.854Z,77.00
2019-03-19T12:50:25.363Z,76.70
2019-03-19T12:52:54.147Z,76.90
2019-03-19T12:55:22.815Z,76.70
2019-03-19T12:57:51.360Z,77.10
2019-03-19T13:02:54.017Z,76.20
2019-03-19T13:06:07.800Z,76.70
2019-03-19T13:10:49.164Z,75.00
2019-03-19T13:13:20.491Z,74.70
2019-03-19T13:15:49.036Z,75.50
2019-03-19T13:18:20.880Z,75.80
2019-03-19T13:20:49.541Z,75.80
2019-03-19T13:23:18.221Z,75.80
2019-03-19T13:25:46.847Z,73.90
2019-03-19T13:28:15.392Z,71.30
2019-03-19T13:30:46.800Z,72.00
2019-03-19T13:33:15.372Z,71.60
2019-03-19T13:35:45.812Z,71.40
2019-03-19T13:38:14.356Z,71.00
2019-03-19T13:40:40.768Z,70.50
2019-03-19T13:43:10.364Z,68.10
2019-03-19T13:45:37.776Z,68.70
2019-03-19T13:48:04.225Z,69.40
2019-03-19T13:50:30.527Z,70.00
2019-03-19T13:52:56.955Z,69.80
2019-03-19T13:55:23.563Z,70.20
2019-03-19T13:57:49.988Z,70.50
2019-03-19T14:00:19.168Z,72.60
2019-03-19T14:02:52.500Z,72.00
2019-03-19T14:05:19.339Z,73.40
2019-03-19T14:07:47.574Z,73.30
2019-03-19T14:10:18.404Z,70.70
2019-03-19T14:12:45.439Z,70.80
2019-03-19T14:15:37.365Z,71.40
2019-03-19T14:18:03.774Z,72.10
2019-03-19T14:20:33.103Z,72.60
2019-03-19T14:22:59.399Z,73.40
2019-03-19T14:25:25.883Z,74.30
2019-03-19T14:27:52.248Z,74.10
2019-03-19T14:30:19.643Z,73.50
2019-03-19T14:32:47.537Z,71.70
2019-03-19T14:35:14.364Z,71.40
2019-03-19T14:37:41.313Z,71.60
2019-03-19T14:40:10.901Z,71.50
2019-03-19T14:42:37.461Z,71.50
2019-03-19T14:45:10.403Z,71.20
2019-03-19T14:47:36.840Z,70.60
2019-03-19T14:50:09.956Z,70.10
2019-03-19T14:52:38.353Z,69.00
2019-03-19T14:55:06.661Z,69.00
2019-03-19T14:57:32.973Z,71.00
2019-03-19T15:00:05.735Z,72.00
2019-03-19T15:02:34.483Z,72.20
2019-03-19T15:05:02.259Z,71.40
2019-03-19T15:07:28.548Z,72.20
2019-03-19T15:09:55.130Z,73.60
2019-03-19T15:12:21.438Z,74.00
2019-03-19T15:14:49.895Z,74.00
2019-03-19T15:17:17.007Z,73.90
2019-03-19T15:19:49.705Z,73.60
2019-03-19T15:22:15.903Z,74.30
2019-03-19T15:24:43.487Z,73.70
2019-03-19T15:27:11.149Z,73.60
2019-03-19T15:29:37.585Z,73.70
2019-03-19T15:32:05.143Z,74.40
2019-03-19T15:34:32.740Z,75.00
2019-03-19T15:36:59.455Z,75.10
2019-03-19T15:39:27.907Z,75.10
2019-03-19T15:41:56.386Z,74.80
2019-03-19T15:44:26.517Z,74.90
2019-03-19T15:47:17.600Z,74.80
2019-03-19T15:49:45.322Z,74.50
2019-03-19T15:52:12.091Z,74.20
2019-03-19T15:54:38.670Z,74.50
2019-03-19T15:57:05.347Z,74.20
2019-03-19T15:59:36.541Z,74.20
2019-03-19T16:02:03.587Z,74.00
2019-03-19T16:04:29.929Z,75.00
2019-03-19T16:06:56.259Z,75.00
2019-03-19T16:09:22.664Z,75.10
2019-03-19T16:11:52.404Z,76.40
2019-03-19T16:14:20.079Z,76.40
2019-03-19T16:16:46.356Z,76.90
2019-03-19T16:19:13.319Z,76.30
2019-03-19T16:21:41.458Z,75.80
2019-03-19T16:24:08.997Z,75.80
2019-03-19T16:26:39.549Z,75.60
2019-03-19T16:29:24.367Z,75.40
2019-03-19T16:31:54.188Z,75.50
2019-03-19T16:34:24.407Z,75.60
2019-03-19T16:36:52.993Z,75.50
2019-03-19T16:39:21.495Z,75.30
2019-03-19T16:41:50.109Z,76.10
2019-03-19T16:44:20.052Z,75.90
2019-03-19T16:46:50.411Z,76.00
2019-03-19T16:49:20.516Z,75.90
2019-03-19T16:51:50.490Z,76.10
2019-03-19T16:54:22.285Z,76.20
2019-03-19T16:56:50.859Z,77.00
2019-03-19T16:59:19.424Z,77.70
2019-03-19T17:01:49.223Z,77.80
2019-03-19T17:04:21.503Z,78.30
2019-03-19T17:06:49.789Z,78.70
2019-03-19T17:09:18.350Z,78.70
2019-03-19T17:11:48.332Z,78.80
2019-03-19T17:14:16.879Z,78.80
2019-03-19T17:16:46.462Z,78.80
2019-03-19T17:19:18.425Z,78.90
2019-03-19T17:21:49.497Z,79.20
2019-03-19T17:24:21.394Z,80.10
2019-03-19T17:26:52.572Z,80.20
2019-03-19T17:29:23.452Z,80.30
2019-03-19T17:32:13.349Z,80.70
2019-03-19T17:34:43.409Z,80.70
2019-03-19T17:37:12.021Z,80.70
2019-03-19T17:39:40.612Z,80.80
2019-03-19T17:42:09.231Z,81.00
2019-03-19T17:44:37.820Z,80.70
2019-03-19T17:47:07.652Z,80.20
2019-03-19T17:49:37.298Z,79.90
2019-03-19T17:52:06.768Z,79.90
2019-03-19T17:55:18.109Z,79.60
2019-03-19T17:57:53.254Z,79.60
2019-03-19T18:00:26.610Z,79.60
2019-03-19T18:02:55.142Z,79.50
2019-03-19T18:05:25.266Z,79.60
2019-03-19T18:07:53.873Z,80.00
2019-03-19T18:10:40.923Z,79.80
2019-03-19T18:13:09.620Z,79.90
2019-03-19T18:15:39.974Z,79.60
2019-03-19T18:18:09.883Z,79.50
2019-03-19T18:20:39.008Z,79.40
2019-03-19T18:23:10.695Z,79.40
2019-03-19T18:26:15.678Z,79.70
2019-03-19T18:28:46.703Z,80.20
2019-03-19T18:31:17.379Z,80.10
2019-03-19T18:33:46.007Z,79.70
2019-03-19T18:36:16.108Z,79.60
2019-03-19T18:38:44.898Z,79.90
2019-03-19T18:41:16.118Z,80.50
2019-03-19T18:43:51.967Z,80.00
2019-03-19T18:46:23.378Z,79.70
2019-03-19T18:48:53.454Z,79.40
2019-03-19T18:51:24.067Z,79.60
2019-03-19T18:53:55.171Z,79.50
2019-03-19T18:56:23.747Z,79.80
2019-03-19T18:58:54.200Z,79.70
2019-03-19T19:01:24.167Z,79.10
2019-03-19T19:03:52.787Z,79.00
2019-03-19T19:06:22.132Z,79.00
2019-03-19T19:12:25.356Z,80.00
2019-03-19T19:14:53.944Z,80.30
2019-03-19T19:17:24.272Z,80.20
2019-03-19T19:19:53.412Z,80.20
2019-03-19T19:22:22.008Z,80.40
2019-03-19T19:24:50.557Z,80.40
2019-03-19T19:27:20.827Z,80.10
2019-03-19T19:29:50.739Z,80.40
2019-03-19T19:32:20.004Z,80.10
2019-03-19T19:34:48.785Z,79.80
2019-03-19T19:37:17.771Z,80.30
2019-03-19T19:39:46.632Z,80.50
2019-03-19T19:42:15.304Z,80.70
2019-03-19T19:44:43.898Z,80.80
2019-03-19T19:47:15.292Z,80.80
2019-03-19T19:49:50.244Z,81.30
2019-03-19T19:52:24.149Z,81.70
2019-03-19T19:55:03.401Z,82.20
2019-03-19T19:57:31.935Z,82.00
2019-03-19T20:00:01.918Z,82.70
2019-03-19T20:02:30.964Z,81.80
2019-03-19T20:05:03.250Z,81.40
2019-03-19T20:07:29.842Z,81.10
2019-03-19T20:09:58.509Z,80.80
2019-03-19T20:12:28.035Z,81.10
2019-03-19T20:14:56.955Z,80.90
2019-03-19T20:17:27.066Z,81.20
2019-03-19T20:19:58.878Z,80.90
2019-03-19T20:22:27.619Z,80.70
2019-03-19T20:24:56.768Z,80.70
2019-03-19T20:27:26.533Z,80.80
2019-03-19T20:29:55.170Z,80.70
2019-03-19T20:32:23.867Z,80.60
2019-03-19T20:34:52.608Z,80.80
2019-03-19T20:37:21.199Z,80.50
2019-03-19T20:39:50.028Z,80.30
2019-03-19T20:42:20.713Z,80.00
2019-03-19T20:44:49.402Z,80.80
2019-03-19T20:47:18.519Z,82.00
2019-03-19T20:49:48.070Z,82.20
2019-03-19T20:52:16.968Z,82.20
2019-03-19T20:54:45.661Z,82.90
2019-03-19T20:57:14.248Z,82.70
2019-03-19T20:59:45.433Z,82.90
2019-03-19T21:02:14.059Z,83.20
2019-03-19T21:04:42.669Z,83.30
2019-03-19T21:07:11.249Z,83.80
2019-03-19T21:09:42.712Z,84.10
2019-03-19T21:12:11.379Z,83.70
2019-03-19T21:14:40.239Z,83.50
2019-03-19T21:17:10.192Z,83.70
2019-03-19T21:19:38.864Z,83.50
2019-03-19T21:22:07.812Z,83.20
2019-03-19T21:24:38.079Z,83.00
2019-03-19T21:27:06.870Z,83.20
2019-03-19T21:29:35.939Z,83.50
2019-03-19T21:32:04.697Z,84.00
2019-03-19T21:34:34.236Z,84.20
2019-03-19T21:37:04.689Z,84.10
2019-03-19T21:39:34.572Z,84.30
2019-03-19T21:42:03.386Z,84.30
2019-03-19T21:44:32.043Z,84.50
2019-03-19T21:47:03.103Z,84.90
2019-03-19T21:49:32.680Z,85.30
2019-03-19T21:52:01.612Z,85.70
2019-03-19T21:54:30.529Z,85.90
2019-03-19T21:57:00.445Z,85.90
2019-03-19T21:59:29.493Z,85.70
2019-03-19T22:01:58.150Z,86.00
2019-03-19T22:04:26.817Z,85.90
2019-03-19T22:06:55.417Z,85.70
2019-03-19T22:09:24.122Z,85.60
2019-03-19T22:11:52.807Z,85.90
2019-03-19T22:14:21.431Z,86.00
2019-03-19T22:16:52.469Z,86.20
2019-03-19T22:19:21.272Z,86.00
2019-03-19T22:21:49.884Z,86.20
2019-03-19T22:24:18.465Z,86.30
2019-03-19T22:26:47.089Z,86.40
2019-03-19T22:29:16.490Z,86.40
2019-03-19T22:31:45.677Z,87.30
2019-03-19T22:34:14.610Z,86.30
2019-03-19T22:36:43.279Z,86.30
2019-03-19T22:39:12.247Z,85.90
2019-03-19T22:41:44.659Z,86.00
2019-03-19T22:44:13.374Z,85.50
2019-03-19T22:46:42.068Z,85.20
2019-03-19T22:49:10.715Z,85.40
2019-03-19T22:51:39.293Z,85.50
2019-03-19T22:54:07.887Z,85.70
2019-03-19T22:56:36.459Z,85.70
2019-03-19T22:59:05.104Z,85.90
2019-03-19T23:01:33.691Z,86.40
2019-03-19T23:04:02.318Z,87.00
2019-03-19T23:06:30.997Z,87.00
2019-03-19T23:08:59.605Z,87.20
2019-03-19T23:11:28.169Z,87.40
2019-03-19T23:13:56.954Z,87.40
2019-03-19T23:16:25.583Z,87.40
2019-03-19T23:18:54.440Z,87.40
2019-03-19T23:21:23.109Z,87.50
2019-03-19T23:23:51.722Z,87.90
2019-03-19T23:26:20.303Z,87.70
2019-03-19T23:28:49.004Z,87.80
2019-03-19T23:31:17.617Z,87.90
2019-03-19T23:33:46.199Z,88.10
2019-03-19T23:36:15.615Z,88.20
2019-03-19T23:38:44.259Z,88.60
2019-03-19T23:41:12.821Z,88.50
2019-03-19T23:43:41.424Z,89.00
2019-03-19T23:46:10.107Z,89.50
2019-03-19T23:48:38.659Z,90.00
2019-03-19T23:51:07.388Z,90.00
2019-03-19T23:53:35.994Z,90.10
2019-03-19T23:56:04.609Z,90.00
2019-03-19T23:58:33.192Z,90.20
